createdAt,value
2019-05-17T00:01:27.039Z,87.09
2019-05-17T00:03:56.402Z,86.84
2019-05-17T00:06:23.514Z,87.03
2019-05-17T00:08:51.000Z,87.18
2019-05-17T00:11:18.499Z,87.16
2019-05-17T00:13:46.605Z,87.51
2019-05-17T00:16:14.231Z,87.72
2019-05-17T00:18:41.724Z,87.45
2019-05-17T00:21:09.221Z,86.88
2019-05-17T00:23:37.467Z,86.80
2019-05-17T00:26:07.134Z,86.89
2019-05-17T00:28:34.685Z,86.71
2019-05-17T00:31:02.193Z,86.60
2019-05-17T00:33:29.672Z,86.35
2019-05-17T00:35:57.172Z,86.53
2019-05-17T00:38:24.666Z,87.10
2019-05-17T00:40:52.939Z,86.80
2019-05-17T00:43:20.419Z,87.40
2019-05-17T00:45:47.960Z,86.99
2019-05-17T00:48:17.211Z,86.75
2019-05-17T00:50:52.203Z,87.08
2019-05-17T00:53:16.257Z,87.57
2019-05-17T00:55:43.316Z,87.64
2019-05-17T00:58:13.696Z,87.60
2019-05-17T01:00:41.197Z,87.50
2019-05-17T01:03:08.688Z,87.37
2019-05-17T01:05:37.150Z,87.39
2019-05-17T01:08:07.387Z,87.32
2019-05-17T01:10:36.879Z,87.12
2019-05-17T01:13:06.539Z,87.49
2019-05-17T01:15:33.424Z,87.81
2019-05-17T01:18:00.996Z,87.74
2019-05-17T01:20:28.500Z,88.18
2019-05-17T01:22:56.705Z,88.43
2019-05-17T01:25:24.393Z,88.03
2019-05-17T01:27:51.889Z,88.55
2019-05-17T01:30:19.679Z,88.43
2019-05-17T01:32:47.172Z,88.26
2019-05-17T01:35:16.874Z,88.07
2019-05-17T01:37:44.071Z,88.44
2019-05-17T01:40:11.557Z,88.88
2019-05-17T01:42:39.073Z,88.17
2019-05-17T01:45:07.396Z,87.99
2019-05-17T01:47:36.884Z,88.18
2019-05-17T01:50:07.397Z,87.63
2019-05-17T01:52:36.762Z,88.17
2019-05-17T01:55:07.161Z,88.05
2019-05-17T01:57:36.775Z,88.42
2019-05-17T02:00:06.628Z,88.56
2019-05-17T02:02:36.609Z,87.94
2019-05-17T02:05:06.476Z,88.69
2019-05-17T02:07:34.080Z,88.91
2019-05-17T02:10:01.694Z,89.70
2019-05-17T02:12:29.448Z,89.69
2019-05-17T02:14:57.548Z,89.80
2019-05-17T02:17:26.541Z,89.44
2019-05-17T02:19:54.206Z,89.67
2019-05-17T02:22:21.707Z,89.42
2019-05-17T02:24:49.199Z,89.48
2019-05-17T02:27:16.709Z,89.77
2019-05-17T02:29:44.187Z,89.21
2019-05-17T02:32:12.780Z,89.74
2019-05-17T02:34:43.013Z,89.64
2019-05-17T02:37:09.812Z,89.81
2019-05-17T02:39:52.256Z,89.97
2019-05-17T02:42:06.526Z,90.00
2019-05-17T02:44:34.096Z,89.84
2019-05-17T02:47:03.099Z,89.86
2019-05-17T02:49:33.074Z,89.23
2019-05-17T02:52:02.971Z,89.76
2019-05-17T02:54:32.533Z,89.48
2019-05-17T02:56:58.552Z,89.26
2019-05-17T02:59:26.035Z,89.27
2019-05-17T03:01:53.541Z,89.00
2019-05-17T03:04:23.610Z,88.55
2019-05-17T03:06:53.120Z,88.23
2019-05-17T03:09:22.656Z,88.33
2019-05-17T03:11:48.715Z,88.79
2019-05-17T03:14:16.189Z,88.41
2019-05-17T03:16:43.706Z,88.64
2019-05-17T03:19:13.123Z,89.06
2019-05-17T03:21:42.887Z,88.82
2019-05-17T03:24:09.645Z,88.58
2019-05-17T03:26:37.983Z,89.17
2019-05-17T03:29:05.472Z,89.05
2019-05-17T03:31:41.444Z,88.92
2019-05-17T03:34:06.630Z,89.25
2019-05-17T03:36:36.374Z,88.93
2019-05-17T03:39:03.108Z,88.91
2019-05-17T03:41:33.828Z,88.52
2019-05-17T03:44:02.923Z,89.22
2019-05-17T03:46:28.661Z,89.31
2019-05-17T03:48:56.160Z,89.95
2019-05-17T03:51:23.658Z,89.69
2019-05-17T03:53:53.115Z,89.19
2019-05-17T03:56:22.437Z,90.09
2019-05-17T03:58:52.795Z,89.83
2019-05-17T04:01:18.815Z,90.08
2019-05-17T04:03:46.316Z,90.38
2019-05-17T04:06:13.809Z,90.86
2019-05-17T04:08:42.509Z,90.91
2019-05-17T04:11:22.302Z,91.21
2019-05-17T04:13:39.415Z,91.29
2019-05-17T04:16:09.263Z,91.11
2019-05-17T04:18:36.411Z,90.66
2019-05-17T04:21:04.063Z,90.64
2019-05-17T04:23:33.992Z,90.96
2019-05-17T04:26:04.151Z,91.15
2019-05-17T04:28:33.497Z,91.17
2019-05-17T04:31:02.645Z,91.41
2019-05-17T04:33:29.169Z,90.95
2019-05-17T04:35:57.435Z,91.04
2019-05-17T04:38:25.000Z,91.25
2019-05-17T04:40:53.708Z,91.44
2019-05-17T04:43:23.108Z,90.87
2019-05-17T04:45:53.614Z,90.67
2019-05-17T04:48:23.305Z,90.97
2019-05-17T04:50:49.654Z,91.26
2019-05-17T04:53:17.166Z,90.75
2019-05-17T04:55:44.767Z,90.79
2019-05-17T04:58:13.725Z,90.80
2019-05-17T05:00:43.038Z,90.20
2019-05-17T05:03:12.749Z,90.30
2019-05-17T05:05:42.762Z,90.58
2019-05-17T05:08:09.242Z,90.35
2019-05-17T05:10:38.569Z,90.32
2019-05-17T05:13:06.292Z,90.25
2019-05-17T05:15:44.033Z,89.40
2019-05-17T05:18:13.245Z,89.55
2019-05-17T05:20:43.133Z,89.61
2019-05-17T05:23:12.290Z,88.97
2019-05-17T05:25:38.579Z,89.24
2019-05-17T05:28:06.072Z,89.88
2019-05-17T05:30:33.575Z,90.20
2019-05-17T05:33:02.000Z,90.30
2019-05-17T05:35:31.670Z,89.38
2019-05-17T05:37:58.880Z,88.72
2019-05-17T05:40:26.373Z,88.73
2019-05-17T05:42:53.886Z,87.46
2019-05-17T05:45:22.513Z,87.53
2019-05-17T05:47:52.181Z,88.50
2019-05-17T05:50:21.814Z,88.30
2019-05-17T05:52:49.000Z,87.98
2019-05-17T05:55:16.765Z,88.10
2019-05-17T05:57:44.277Z,87.50
2019-05-17T06:00:12.816Z,87.34
2019-05-17T06:02:41.881Z,87.89
2019-05-17T06:05:09.705Z,87.94
2019-05-17T06:07:37.212Z,87.53
2019-05-17T06:10:06.574Z,87.44
2019-05-17T06:12:34.060Z,87.22
2019-05-17T06:15:02.815Z,88.38
2019-05-17T06:17:31.774Z,88.27
2019-05-17T06:19:59.420Z,87.78
2019-05-17T06:22:26.913Z,86.96
2019-05-17T06:24:54.437Z,86.66
2019-05-17T06:27:21.930Z,86.63
2019-05-17T06:29:51.378Z,87.39
2019-05-17T06:32:18.645Z,87.98
2019-05-17T06:34:46.141Z,87.42
2019-05-17T06:37:16.439Z,87.73
2019-05-17T06:39:42.885Z,87.88
2019-05-17T06:42:12.071Z,85.78
2019-05-17T06:44:41.725Z,87.00
2019-05-17T06:47:11.709Z,85.70
2019-05-17T06:49:38.508Z,86.01
2019-05-17T06:52:05.993Z,86.25
2019-05-17T06:54:33.489Z,86.26
2019-05-17T06:57:03.324Z,86.84
2019-05-17T06:59:30.212Z,85.24
2019-05-17T07:01:59.670Z,85.63
2019-05-17T07:04:26.926Z,85.83
2019-05-17T07:07:13.153Z,86.13
2019-05-17T07:09:41.005Z,86.79
2019-05-17T07:12:10.382Z,85.89
2019-05-17T07:14:40.108Z,85.32
2019-05-17T07:17:09.724Z,84.92
2019-05-17T07:19:36.896Z,84.29
2019-05-17T07:22:04.389Z,84.69
2019-05-17T07:24:31.898Z,84.42
2019-05-17T07:26:59.393Z,85.28
2019-05-17T07:29:26.905Z,84.71
2019-05-17T07:31:54.683Z,84.97
2019-05-17T07:34:22.189Z,85.00
2019-05-17T07:36:50.372Z,85.19
2019-05-17T07:39:20.308Z,84.80
2019-05-17T07:41:49.323Z,84.52
2019-05-17T07:44:16.683Z,85.21
2019-05-17T07:46:44.180Z,83.67
2019-05-17T07:49:11.728Z,84.22
2019-05-17T07:51:39.587Z,83.61
2019-05-17T07:54:07.321Z,84.26
2019-05-17T07:56:34.815Z,85.19
2019-05-17T07:59:02.769Z,85.06
2019-05-17T08:01:30.275Z,84.06
2019-05-17T08:04:00.381Z,82.42
2019-05-17T08:06:26.999Z,83.76
2019-05-17T08:08:54.488Z,81.21
2019-05-17T08:11:21.992Z,81.37
2019-05-17T08:13:50.474Z,82.09
2019-05-17T08:16:19.652Z,81.58
2019-05-17T08:18:49.541Z,81.32
2019-05-17T08:21:16.482Z,80.54
2019-05-17T08:23:43.978Z,80.64
2019-05-17T08:26:11.475Z,81.48
2019-05-17T08:28:40.334Z,80.71
2019-05-17T08:31:09.933Z,81.05
2019-05-17T08:33:37.528Z,82.56
2019-05-17T08:36:05.135Z,82.22
2019-05-17T08:38:32.629Z,78.92
2019-05-17T08:41:00.811Z,79.73
2019-05-17T08:43:39.805Z,78.61
2019-05-17T08:45:59.318Z,78.25
2019-05-17T08:48:26.969Z,78.01
2019-05-17T08:50:54.471Z,78.67
2019-05-17T08:53:22.209Z,79.33
2019-05-17T08:55:50.227Z,78.85
2019-05-17T08:58:21.284Z,79.10
2019-05-17T09:00:47.116Z,79.00
2019-05-17T09:03:14.911Z,78.40
2019-05-17T09:05:43.093Z,78.84
2019-05-17T09:08:10.763Z,78.09
2019-05-17T09:10:40.666Z,78.00
2019-05-17T09:13:10.301Z,76.60
2019-05-17T09:15:39.952Z,77.08
2019-05-17T09:18:09.620Z,76.87
2019-05-17T09:20:36.400Z,76.17
2019-05-17T09:23:03.907Z,74.96
2019-05-17T09:25:31.660Z,75.99
2019-05-17T09:28:00.712Z,75.99
2019-05-17T09:30:31.173Z,76.92
2019-05-17T09:33:00.303Z,76.20
2019-05-17T09:35:29.882Z,75.89
2019-05-17T09:37:56.911Z,74.34
2019-05-17T09:40:24.408Z,74.21
2019-05-17T09:42:51.921Z,74.88
2019-05-17T09:45:20.183Z,74.87
2019-05-17T09:47:50.328Z,75.11
2019-05-17T09:50:17.121Z,75.23
2019-05-17T09:52:44.713Z,74.87
2019-05-17T09:55:12.203Z,75.10
2019-05-17T09:57:40.993Z,76.96
2019-05-17T10:00:09.894Z,74.27
2019-05-17T10:02:39.923Z,74.70
2019-05-17T10:05:06.960Z,73.81
2019-05-17T10:07:34.464Z,73.20
2019-05-17T10:10:02.805Z,73.70
2019-05-17T10:12:30.308Z,73.84
2019-05-17T10:15:00.274Z,72.99
2019-05-17T10:17:29.309Z,72.26
2019-05-17T10:19:56.297Z,73.85
2019-05-17T10:22:23.804Z,72.90
2019-05-17T10:24:51.300Z,72.26
2019-05-17T10:27:19.653Z,71.46
2019-05-17T10:29:47.280Z,71.95
2019-05-17T10:32:14.894Z,71.06
2019-05-17T10:34:42.387Z,71.57
2019-05-17T10:37:10.505Z,71.90
2019-05-17T10:39:39.461Z,70.25
2019-05-17T10:42:09.894Z,70.18
2019-05-17T10:44:46.286Z,69.58
2019-05-17T10:47:05.884Z,71.54
2019-05-17T10:49:33.384Z,70.35
2019-05-17T10:52:00.897Z,69.99
2019-05-17T10:54:30.100Z,68.63
2019-05-17T10:56:59.734Z,68.83
2019-05-17T10:59:28.524Z,70.23
2019-05-17T11:01:56.036Z,70.30
2019-05-17T11:04:23.531Z,71.01
2019-05-17T11:06:51.027Z,69.53
2019-05-17T11:09:20.555Z,68.45
2019-05-17T11:11:48.276Z,68.76
2019-05-17T11:14:15.780Z,69.74
2019-05-17T11:16:43.287Z,68.18
2019-05-17T11:19:10.789Z,68.24
2019-05-17T11:21:38.303Z,68.37
2019-05-17T11:24:05.886Z,69.09
2019-05-17T11:26:33.448Z,70.00
2019-05-17T11:29:00.969Z,69.52
2019-05-17T11:31:28.468Z,69.93
2019-05-17T11:33:55.977Z,70.38
2019-05-17T11:36:23.476Z,70.10
2019-05-17T11:38:50.995Z,69.73
2019-05-17T11:41:21.521Z,70.42
2019-05-17T11:43:47.769Z,69.07
2019-05-17T11:46:15.270Z,69.67
2019-05-17T11:48:42.773Z,68.71
2019-05-17T11:51:10.272Z,68.16
2019-05-17T11:53:37.776Z,68.21
2019-05-17T11:56:05.286Z,69.65
2019-05-17T11:58:32.858Z,68.15
2019-05-17T12:01:00.354Z,68.45
2019-05-17T12:03:27.860Z,69.82
2019-05-17T12:05:55.364Z,68.84
2019-05-17T12:08:22.867Z,69.91
2019-05-17T12:10:50.448Z,68.73
2019-05-17T12:13:18.150Z,68.08
2019-05-17T12:15:45.939Z,68.20
2019-05-17T12:18:13.516Z,68.73
2019-05-17T12:20:41.025Z,70.00
2019-05-17T12:23:08.528Z,67.39
2019-05-17T12:25:36.057Z,69.17
2019-05-17T12:28:03.662Z,68.42
2019-05-17T12:30:31.156Z,68.02
2019-05-17T12:32:58.654Z,69.05
2019-05-17T12:35:26.173Z,67.99
2019-05-17T12:37:53.676Z,67.89
2019-05-17T12:40:21.184Z,68.11
2019-05-17T12:42:48.675Z,67.50
2019-05-17T12:45:16.184Z,66.48
2019-05-17T12:47:43.684Z,66.66
2019-05-17T12:50:11.188Z,64.35
2019-05-17T12:52:38.734Z,63.03
2019-05-17T12:55:06.511Z,64.09
2019-05-17T12:57:34.343Z,63.04
2019-05-17T13:00:01.848Z,62.92
2019-05-17T13:02:29.351Z,64.45
2019-05-17T13:04:56.860Z,64.05
2019-05-17T13:07:24.356Z,63.53
2019-05-17T13:09:51.882Z,63.62
2019-05-17T13:12:19.360Z,63.74
2019-05-17T13:14:46.880Z,64.66
2019-05-17T13:17:14.384Z,65.43
2019-05-17T13:19:41.891Z,65.64
2019-05-17T13:22:09.406Z,64.85
2019-05-17T13:24:37.001Z,64.46
2019-05-17T13:27:05.340Z,65.60
2019-05-17T13:29:32.844Z,64.98
2019-05-17T13:32:00.343Z,65.90
2019-05-17T13:34:27.833Z,65.46
2019-05-17T13:36:56.108Z,64.38
2019-05-17T13:39:24.372Z,64.58
2019-05-17T13:41:51.884Z,65.91
2019-05-17T13:44:19.381Z,65.39
2019-05-17T13:46:46.896Z,65.06
2019-05-17T13:49:14.384Z,64.03
2019-05-17T13:51:41.889Z,62.78
2019-05-17T13:54:09.393Z,63.04
2019-05-17T13:56:36.899Z,65.44
2019-05-17T13:59:04.696Z,64.19
2019-05-17T14:01:32.873Z,65.50
2019-05-17T14:04:00.373Z,65.16
2019-05-17T14:06:27.882Z,65.34
2019-05-17T14:08:55.380Z,64.35
2019-05-17T14:11:22.950Z,64.00
2019-05-17T14:13:50.774Z,64.76
2019-05-17T14:16:18.287Z,64.69
2019-05-17T14:18:46.204Z,63.53
2019-05-17T14:21:13.713Z,64.91
2019-05-17T14:23:41.212Z,63.99
2019-05-17T14:26:08.824Z,63.28
2019-05-17T14:28:36.331Z,63.50
2019-05-17T14:31:03.832Z,63.51
2019-05-17T14:33:31.330Z,62.64
2019-05-17T14:35:58.840Z,62.49
2019-05-17T14:38:26.333Z,63.33
2019-05-17T14:41:06.725Z,63.99
2019-05-17T14:43:23.063Z,63.77
2019-05-17T14:45:50.567Z,63.44
2019-05-17T14:48:18.069Z,63.56
2019-05-17T14:50:45.575Z,63.85
2019-05-17T14:53:13.073Z,62.38
2019-05-17T14:55:40.570Z,63.78
2019-05-17T14:58:08.073Z,62.19
2019-05-17T15:00:36.344Z,62.19
2019-05-17T15:03:07.297Z,64.54
2019-05-17T15:05:33.069Z,64.69
2019-05-17T15:08:00.632Z,64.26
2019-05-17T15:10:29.024Z,64.06
2019-05-17T15:12:56.540Z,63.56
2019-05-17T15:15:27.242Z,63.99
2019-05-17T15:17:53.345Z,66.24
2019-05-17T15:20:20.876Z,64.60
2019-05-17T15:22:48.409Z,65.61
2019-05-17T15:25:15.961Z,66.14
2019-05-17T15:27:43.476Z,65.08
2019-05-17T15:30:10.965Z,65.97
2019-05-17T15:32:38.476Z,64.91
2019-05-17T15:35:07.041Z,64.68
2019-05-17T15:37:34.558Z,65.14
2019-05-17T15:40:02.165Z,64.37
2019-05-17T15:42:43.291Z,65.28
2019-05-17T15:45:00.617Z,66.49
2019-05-17T15:47:28.133Z,64.00
2019-05-17T15:49:56.402Z,64.15
2019-05-17T15:52:23.917Z,65.19
2019-05-17T15:54:51.410Z,64.62
2019-05-17T15:57:18.942Z,64.70
2019-05-17T15:59:46.448Z,64.43
2019-05-17T16:02:13.956Z,63.78
2019-05-17T16:04:42.220Z,65.01
2019-05-17T16:07:09.729Z,63.20
2019-05-17T16:09:37.216Z,63.70
2019-05-17T16:12:04.726Z,64.19
2019-05-17T16:14:32.244Z,64.00
2019-05-17T16:16:59.807Z,64.58
2019-05-17T16:19:27.315Z,64.23
2019-05-17T16:21:54.909Z,64.52
2019-05-17T16:24:22.573Z,64.73
2019-05-17T16:26:50.069Z,66.06
2019-05-17T16:29:18.349Z,66.63
2019-05-17T16:31:46.617Z,65.99
2019-05-17T16:34:14.120Z,65.47
2019-05-17T16:36:41.704Z,64.75
2019-05-17T16:39:09.209Z,64.58
2019-05-17T16:41:36.712Z,66.27
2019-05-17T16:44:04.308Z,64.45
2019-05-17T16:46:32.136Z,63.15
2019-05-17T16:48:59.631Z,63.68
2019-05-17T16:51:27.131Z,63.59
2019-05-17T16:53:54.643Z,63.61
2019-05-17T16:56:22.141Z,65.83
2019-05-17T16:58:49.644Z,64.85
2019-05-17T17:01:17.174Z,62.54
2019-05-17T17:03:44.929Z,62.16
2019-05-17T17:06:12.648Z,63.53
2019-05-17T17:08:40.316Z,63.97
2019-05-17T17:11:07.821Z,62.59
2019-05-17T17:13:35.324Z,62.63
2019-05-17T17:16:03.146Z,63.22
2019-05-17T17:18:30.873Z,62.93
2019-05-17T17:20:58.368Z,63.93
2019-05-17T17:23:26.157Z,62.41
2019-05-17T17:25:53.741Z,63.66
2019-05-17T17:28:23.639Z,63.72
2019-05-17T17:30:50.609Z,62.53
2019-05-17T17:33:18.141Z,63.31
2019-05-17T17:35:45.632Z,64.34
2019-05-17T17:38:13.128Z,63.91
2019-05-17T17:40:40.632Z,65.00
2019-05-17T17:43:08.128Z,63.90
2019-05-17T17:45:35.637Z,63.94
2019-05-17T17:48:03.127Z,64.23
2019-05-17T17:50:30.635Z,64.15
2019-05-17T17:52:58.123Z,64.41
2019-05-17T17:55:25.630Z,64.24
2019-05-17T17:57:53.132Z,64.49
2019-05-17T18:00:20.981Z,64.70
2019-05-17T18:02:48.479Z,66.10
2019-05-17T18:05:15.983Z,65.33
2019-05-17T18:07:43.496Z,64.45
2019-05-17T18:10:11.009Z,64.11
2019-05-17T18:12:38.506Z,64.50
2019-05-17T18:15:06.563Z,64.13
2019-05-17T18:17:39.141Z,65.29
2019-05-17T18:20:03.441Z,65.11
2019-05-17T18:22:31.037Z,64.85
2019-05-17T18:24:58.545Z,65.41
2019-05-17T18:27:26.046Z,65.25
2019-05-17T18:29:53.612Z,66.45
2019-05-17T18:32:21.111Z,66.59
2019-05-17T18:34:48.634Z,66.85
2019-05-17T18:37:16.114Z,67.04
2019-05-17T18:39:43.621Z,67.27
2019-05-17T18:42:11.118Z,67.29
2019-05-17T18:44:38.620Z,67.30
2019-05-17T18:47:06.118Z,66.54
2019-05-17T18:49:33.756Z,67.50
2019-05-17T18:52:01.257Z,67.84
2019-05-17T18:54:28.752Z,69.03
2019-05-17T18:56:56.262Z,69.57
2019-05-17T18:59:23.778Z,69.86
2019-05-17T19:01:51.280Z,70.64
2019-05-17T19:04:18.779Z,70.09
2019-05-17T19:06:46.288Z,70.41
2019-05-17T19:09:13.780Z,70.67
2019-05-17T19:11:41.288Z,71.04
2019-05-17T19:14:08.788Z,71.23
2019-05-17T19:16:36.300Z,72.21
2019-05-17T19:19:03.809Z,73.03
2019-05-17T19:21:31.323Z,73.63
2019-05-17T19:23:58.816Z,73.73
2019-05-17T19:26:26.316Z,75.34
2019-05-17T19:28:53.821Z,75.93
2019-05-17T19:31:21.329Z,76.81
2019-05-17T19:33:48.824Z,78.12
2019-05-17T19:36:16.338Z,78.60
2019-05-17T19:38:43.828Z,79.12
2019-05-17T19:41:11.385Z,79.89
2019-05-17T19:43:39.113Z,79.61
2019-05-17T19:46:06.635Z,78.77
2019-05-17T19:48:34.198Z,78.00
2019-05-17T19:51:01.871Z,77.40
2019-05-17T19:53:29.437Z,77.66
2019-05-17T19:55:57.070Z,77.66
2019-05-17T19:58:24.640Z,77.29
2019-05-17T20:00:52.216Z,77.19
2019-05-17T20:03:19.708Z,77.75
2019-05-17T20:05:47.201Z,77.94
2019-05-17T20:08:14.721Z,77.05
2019-05-17T20:10:42.292Z,77.01
2019-05-17T20:13:10.097Z,77.60
2019-05-17T20:15:37.600Z,78.18
2019-05-17T20:18:05.129Z,78.41
2019-05-17T20:20:32.981Z,78.73
2019-05-17T20:23:00.497Z,79.14
2019-05-17T20:25:28.014Z,79.41
2019-05-17T20:27:55.657Z,79.51
2019-05-17T20:30:23.140Z,80.07
2019-05-17T20:32:50.729Z,80.01
2019-05-17T20:35:18.228Z,80.62
2019-05-17T20:37:45.736Z,80.53
2019-05-17T20:40:13.235Z,80.43
2019-05-17T20:42:40.745Z,79.28
2019-05-17T20:45:08.238Z,80.09
2019-05-17T20:47:35.743Z,79.80
2019-05-17T20:50:04.509Z,78.36
2019-05-17T20:52:32.012Z,79.43
2019-05-17T20:54:59.576Z,79.37
2019-05-17T20:57:27.416Z,80.05
2019-05-17T20:59:54.912Z,80.38
2019-05-17T21:02:22.740Z,82.21
2019-05-17T21:04:50.904Z,77.36
2019-05-17T21:07:18.687Z,83.67
2019-05-17T21:09:46.188Z,76.19
2019-05-17T21:12:13.688Z,75.50
2019-05-17T21:14:41.184Z,76.21
2019-05-17T21:17:08.688Z,78.36
2019-05-17T21:19:36.207Z,77.47
2019-05-17T21:22:04.481Z,77.14
2019-05-17T21:24:32.062Z,78.81
2019-05-17T21:26:59.705Z,79.18
2019-05-17T21:29:27.555Z,79.63
2019-05-17T21:31:55.053Z,79.64
2019-05-17T21:34:22.569Z,80.14
2019-05-17T21:36:50.060Z,79.94
2019-05-17T21:39:17.651Z,80.49
2019-05-17T21:41:47.905Z,81.79
2019-05-17T21:44:15.413Z,80.86
2019-05-17T21:46:42.913Z,81.71
2019-05-17T21:49:10.421Z,81.85
2019-05-17T21:51:38.156Z,81.36
2019-05-17T21:54:05.664Z,80.75
2019-05-17T21:56:33.160Z,81.81
2019-05-17T21:59:00.662Z,80.69
2019-05-17T22:01:28.629Z,81.02
2019-05-17T22:03:56.135Z,79.99
2019-05-17T22:06:23.648Z,80.36
2019-05-17T22:08:51.149Z,81.27
2019-05-17T22:11:18.664Z,81.44
2019-05-17T22:13:46.172Z,81.35
2019-05-17T22:16:19.698Z,80.89
2019-05-17T22:18:43.465Z,81.59
2019-05-17T22:21:10.961Z,81.16
2019-05-17T22:23:38.538Z,81.20
2019-05-17T22:26:06.027Z,81.90
2019-05-17T22:28:33.532Z,82.42
2019-05-17T22:31:01.036Z,82.40
2019-05-17T22:33:28.707Z,83.22
2019-05-17T22:35:56.199Z,82.90
2019-05-17T22:38:23.688Z,83.36
2019-05-17T22:40:51.187Z,82.71
2019-05-17T22:43:18.692Z,83.39
2019-05-17T22:45:46.536Z,83.08
2019-05-17T22:48:14.048Z,82.71
2019-05-17T22:50:41.908Z,83.00
2019-05-17T22:53:09.407Z,83.22
2019-05-17T22:55:36.902Z,83.17
2019-05-17T22:58:04.400Z,83.79
2019-05-17T23:00:31.892Z,84.11
2019-05-17T23:02:59.389Z,84.01
2019-05-17T23:05:26.885Z,84.34
2019-05-17T23:07:54.376Z,84.66
2019-05-17T23:10:21.876Z,83.93
2019-05-17T23:12:49.364Z,83.77
2019-05-17T23:15:17.107Z,84.10
2019-05-17T23:17:44.652Z,84.61
2019-05-17T23:20:12.153Z,84.28
2019-05-17T23:22:39.644Z,84.14
2019-05-17T23:25:07.148Z,84.35
2019-05-17T23:27:34.964Z,83.67
2019-05-17T23:30:02.469Z,84.03
2019-05-17T23:32:29.964Z,84.28
2019-05-17T23:34:57.470Z,84.07
2019-05-17T23:37:24.961Z,84.53
2019-05-17T23:39:52.459Z,84.58
2019-05-17T23:42:19.949Z,84.08
2019-05-17T23:44:47.444Z,83.90
2019-05-17T23:47:14.936Z,83.82
2019-05-17T23:49:42.442Z,84.35
2019-05-17T23:52:09.932Z,83.82
2019-05-17T23:54:37.431Z,84.51
2019-05-17T23:57:04.949Z,84.75
2019-05-17T23:59:32.450Z,84.91
